createdAt,value
2022-08-19T00:02:14.648Z,20.00
2022-08-19T00:04:43.552Z,19.90
2022-08-19T00:07:12.317Z,19.90
2022-08-19T00:09:43.010Z,19.90
2022-08-19T00:12:11.744Z,19.80
2022-08-19T00:14:42.279Z,19.80
2022-08-19T00:17:11.682Z,19.70
2022-08-19T00:19:41.768Z,19.70
2022-08-19T00:22:11.228Z,19.60
2022-08-19T00:24:42.758Z,19.60
2022-08-19T00:27:26.238Z,19.60
2022-08-19T00:29:55.584Z,19.60
2022-08-19T00:32:24.399Z,19.60
2022-08-19T00:34:54.585Z,19.50
2022-08-19T00:37:24.341Z,19.40
2022-08-19T00:39:54.802Z,19.40
2022-08-19T00:42:24.712Z,19.40
2022-08-19T00:44:53.384Z,19.30
2022-08-19T00:47:22.702Z,19.30
2022-08-19T00:49:53.769Z,19.30
2022-08-19T00:52:25.821Z,19.20
2022-08-19T00:54:56.509Z,19.20
2022-08-19T00:57:30.333Z,19.10
2022-08-19T01:00:03.047Z,19.10
2022-08-19T01:02:34.621Z,19.00
2022-08-19T01:05:07.024Z,19.00
2022-08-19T01:07:38.277Z,19.00
2022-08-19T01:10:12.904Z,19.00
2022-08-19T01:12:43.339Z,19.00
2022-08-19T01:15:14.402Z,18.90
2022-08-19T01:17:43.975Z,19.00
2022-08-19T01:20:15.728Z,18.90
2022-08-19T01:22:48.597Z,18.90
2022-08-19T01:25:19.459Z,18.90
2022-08-19T01:27:53.581Z,18.90
2022-08-19T01:30:25.463Z,18.90
2022-08-19T01:32:55.246Z,18.80
2022-08-19T01:35:25.578Z,18.80
2022-08-19T01:37:58.286Z,18.80
2022-08-19T01:40:32.041Z,18.80
2022-08-19T01:43:01.572Z,18.80
2022-08-19T01:45:33.288Z,18.80
2022-08-19T01:48:02.697Z,18.80
2022-08-19T01:50:32.570Z,18.80
2022-08-19T01:53:06.517Z,18.70
2022-08-19T01:55:40.475Z,18.70
2022-08-19T01:58:13.271Z,18.70
2022-08-19T02:00:42.150Z,18.70
2022-08-19T02:03:13.317Z,18.60
2022-08-19T02:05:57.759Z,18.60
2022-08-19T02:09:02.335Z,18.60
2022-08-19T02:11:23.996Z,18.60
2022-08-19T02:13:53.651Z,18.60
2022-08-19T02:16:24.035Z,18.60
2022-08-19T02:18:53.440Z,18.60
2022-08-19T02:21:27.061Z,18.60
2022-08-19T02:23:58.462Z,18.60
2022-08-19T02:26:27.980Z,18.60
2022-08-19T02:28:58.582Z,18.60
2022-08-19T02:31:31.189Z,18.60
2022-08-19T02:34:09.906Z,18.60
2022-08-19T02:36:42.363Z,18.60
2022-08-19T02:39:18.938Z,18.60
2022-08-19T02:41:48.150Z,18.60
2022-08-19T02:44:29.304Z,18.60
2022-08-19T02:47:00.438Z,18.60
2022-08-19T02:49:29.298Z,18.60
2022-08-19T02:52:03.207Z,18.60
2022-08-19T02:54:33.580Z,18.60
2022-08-19T02:57:02.312Z,18.60
2022-08-19T02:59:32.742Z,18.60
2022-08-19T03:02:01.570Z,18.60
2022-08-19T03:04:30.795Z,18.60
2022-08-19T03:07:07.223Z,18.60
2022-08-19T03:09:43.027Z,18.50
2022-08-19T03:12:12.200Z,18.60
2022-08-19T03:14:40.863Z,18.60
2022-08-19T03:17:09.697Z,18.60
2022-08-19T03:19:39.393Z,18.60
2022-08-19T03:22:09.150Z,18.60
2022-08-19T03:24:38.248Z,18.60
2022-08-19T03:27:09.562Z,18.60
2022-08-19T03:29:42.998Z,18.70
2022-08-19T03:32:31.717Z,18.60
2022-08-19T03:35:01.483Z,18.70
2022-08-19T03:37:30.600Z,18.70
2022-08-19T03:39:59.457Z,18.70
2022-08-19T03:42:45.382Z,18.80
2022-08-19T03:45:17.965Z,18.80
2022-08-19T03:47:46.796Z,18.80
2022-08-19T03:50:15.456Z,18.90
2022-08-19T03:52:45.353Z,19.00
2022-08-19T03:55:16.066Z,19.00
2022-08-19T03:57:46.959Z,19.10
2022-08-19T04:00:16.722Z,19.20
2022-08-19T04:02:58.254Z,19.30
2022-08-19T04:05:30.840Z,19.40
2022-08-19T04:08:00.540Z,19.50
2022-08-19T04:10:29.626Z,19.60
2022-08-19T04:12:59.894Z,19.60
2022-08-19T04:15:29.985Z,19.70
2022-08-19T04:17:58.614Z,19.80
2022-08-19T04:20:27.221Z,20.00
2022-08-19T04:22:55.940Z,20.20
2022-08-19T04:25:24.535Z,20.40
2022-08-19T04:27:53.136Z,20.60
2022-08-19T04:30:23.754Z,20.80
2022-08-19T04:32:52.902Z,20.90
2022-08-19T04:35:24.784Z,20.90
2022-08-19T04:37:53.638Z,20.90
2022-08-19T04:40:39.559Z,21.00
2022-08-19T04:43:08.214Z,21.00
2022-08-19T04:45:43.606Z,21.00
2022-08-19T04:48:19.704Z,21.10
2022-08-19T04:50:58.851Z,21.20
2022-08-19T04:53:29.975Z,21.40
2022-08-19T04:56:09.614Z,21.70
2022-08-19T04:58:40.035Z,21.80
2022-08-19T05:01:11.755Z,22.20
2022-08-19T05:03:40.652Z,22.50
2022-08-19T05:06:13.362Z,22.70
2022-08-19T05:08:44.386Z,23.00
2022-08-19T05:11:15.131Z,23.30
2022-08-19T05:13:44.224Z,23.60
2022-08-19T05:16:15.797Z,23.90
2022-08-19T05:19:02.926Z,24.10
2022-08-19T05:21:49.934Z,24.40
2022-08-19T05:24:19.890Z,24.60
2022-08-19T05:26:51.831Z,24.70
2022-08-19T05:29:22.615Z,24.80
2022-08-19T05:31:58.037Z,24.80
2022-08-19T05:34:28.537Z,24.80
2022-08-19T05:37:00.710Z,24.70
2022-08-19T05:39:31.253Z,24.70
2022-08-19T05:42:02.475Z,24.50
2022-08-19T05:44:34.773Z,24.60
2022-08-19T05:47:07.664Z,24.50
2022-08-19T05:49:37.294Z,24.40
2022-08-19T05:52:07.370Z,24.30
2022-08-19T05:54:37.209Z,24.30
2022-08-19T05:57:06.162Z,24.30
2022-08-19T05:59:36.619Z,24.40
2022-08-19T06:02:09.507Z,24.50
2022-08-19T06:04:38.869Z,24.50
2022-08-19T06:07:12.535Z,24.50
2022-08-19T06:09:43.786Z,24.60
2022-08-19T06:12:30.091Z,24.70
2022-08-19T06:15:01.113Z,24.70
2022-08-19T06:17:32.695Z,24.80
2022-08-19T06:20:01.945Z,24.80
2022-08-19T06:22:30.872Z,24.90
2022-08-19T06:24:59.551Z,24.90
2022-08-19T06:27:28.318Z,25.00
2022-08-19T06:29:56.996Z,25.00
2022-08-19T06:32:26.330Z,25.10
2022-08-19T06:34:56.535Z,25.10
2022-08-19T06:37:25.334Z,25.00
2022-08-19T06:39:54.665Z,25.00
2022-08-19T06:42:23.988Z,24.90
2022-08-19T06:44:53.746Z,24.90
2022-08-19T06:47:28.757Z,24.90
2022-08-19T06:50:03.546Z,24.90
2022-08-19T06:52:34.030Z,24.90
2022-08-19T06:55:05.934Z,24.90
2022-08-19T06:57:36.625Z,24.90
2022-08-19T07:00:12.294Z,25.00
2022-08-19T07:02:42.632Z,25.10
2022-08-19T07:05:15.144Z,25.10
2022-08-19T07:07:45.039Z,25.30
2022-08-19T07:10:16.399Z,25.30
2022-08-19T07:12:45.807Z,25.50
2022-08-19T07:15:16.353Z,25.60
2022-08-19T07:17:45.250Z,25.70
2022-08-19T07:20:18.550Z,25.80
2022-08-19T07:22:47.606Z,26.00
2022-08-19T07:25:18.431Z,26.20
2022-08-19T07:27:48.730Z,26.30
2022-08-19T07:30:26.402Z,26.40
2022-08-19T07:32:55.308Z,26.50
2022-08-19T07:35:26.938Z,26.60
2022-08-19T07:37:55.740Z,26.60
2022-08-19T07:40:24.930Z,26.60
2022-08-19T07:42:53.586Z,26.60
2022-08-19T07:45:22.277Z,26.60
2022-08-19T07:47:51.409Z,26.60
2022-08-19T07:50:21.726Z,26.70
2022-08-19T07:52:53.065Z,26.70
2022-08-19T07:55:41.708Z,26.70
2022-08-19T07:58:14.157Z,26.70
2022-08-19T08:00:43.237Z,26.80
2022-08-19T08:03:15.713Z,26.90
2022-08-19T08:06:01.665Z,27.00
2022-08-19T08:08:49.739Z,27.10
2022-08-19T08:11:21.476Z,27.20
2022-08-19T08:14:00.945Z,27.30
2022-08-19T08:16:32.455Z,27.30
2022-08-19T08:19:01.540Z,27.40
2022-08-19T08:21:30.253Z,27.40
2022-08-19T08:26:30.138Z,27.60
2022-08-19T08:29:10.903Z,27.60
2022-08-19T08:31:43.348Z,27.60
2022-08-19T08:34:13.119Z,27.60
2022-08-19T08:36:44.233Z,27.60
2022-08-19T08:39:16.353Z,27.70
2022-08-19T08:41:55.546Z,27.70
2022-08-19T08:44:29.790Z,27.80
2022-08-19T08:47:03.496Z,27.80
2022-08-19T08:49:38.999Z,27.80
2022-08-19T08:52:09.679Z,27.80
2022-08-19T08:54:48.946Z,27.90
2022-08-19T08:57:30.515Z,27.90
2022-08-19T09:00:15.222Z,27.90
2022-08-19T09:02:45.306Z,27.90
2022-08-19T09:05:25.943Z,27.80
2022-08-19T09:08:03.050Z,27.90
2022-08-19T09:10:44.729Z,28.00
2022-08-19T09:13:26.425Z,28.10
2022-08-19T09:16:02.223Z,28.10
2022-08-19T09:18:42.181Z,28.20
2022-08-19T09:21:11.272Z,28.30
2022-08-19T09:23:40.003Z,28.40
2022-08-19T09:26:16.431Z,28.50
2022-08-19T09:28:48.845Z,28.50
2022-08-19T09:31:21.346Z,28.50
2022-08-19T09:33:52.432Z,28.60
2022-08-19T09:36:34.597Z,28.60
2022-08-19T09:39:16.272Z,28.60
2022-08-19T09:41:47.498Z,28.80
2022-08-19T09:44:22.724Z,28.60
2022-08-19T09:46:52.488Z,28.60
2022-08-19T09:49:24.400Z,28.60
2022-08-19T09:51:58.653Z,28.70
2022-08-19T09:54:29.834Z,28.70
2022-08-19T09:57:07.663Z,28.70
2022-08-19T09:59:36.546Z,28.80
2022-08-19T10:02:11.057Z,28.80
2022-08-19T10:04:56.606Z,28.90
2022-08-19T10:07:28.950Z,28.90
2022-08-19T10:10:07.601Z,29.00
2022-08-19T10:12:51.097Z,29.10
2022-08-19T10:15:28.960Z,29.20
2022-08-19T10:18:00.010Z,29.20
2022-08-19T10:20:32.704Z,29.20
2022-08-19T10:23:02.896Z,29.30
2022-08-19T10:25:36.259Z,29.30
2022-08-19T10:28:15.346Z,29.30
2022-08-19T10:30:59.591Z,29.40
2022-08-19T10:33:42.636Z,29.40
2022-08-19T10:36:23.712Z,29.40
2022-08-19T10:39:03.074Z,29.40
2022-08-19T10:41:38.456Z,29.20
2022-08-19T10:44:10.560Z,29.50
2022-08-19T10:46:50.846Z,29.50
2022-08-19T10:49:28.190Z,29.50
2022-08-19T10:52:19.398Z,29.70
2022-08-19T10:55:22.125Z,29.70
2022-08-19T10:58:02.181Z,29.70
2022-08-19T11:00:34.459Z,29.70
2022-08-19T11:03:03.175Z,29.70
2022-08-19T11:05:38.303Z,29.80
2022-08-19T11:08:22.163Z,29.80
2022-08-19T11:10:54.843Z,29.90
2022-08-19T11:13:24.499Z,29.90
2022-08-19T11:16:05.291Z,30.00
2022-08-19T11:18:38.632Z,30.10
2022-08-19T11:21:18.155Z,30.10
2022-08-19T11:23:49.418Z,30.20
2022-08-19T11:26:19.122Z,30.20
2022-08-19T11:28:48.356Z,30.20
2022-08-19T11:31:22.340Z,30.20
2022-08-19T11:33:54.831Z,30.20
2022-08-19T11:36:28.406Z,30.30
2022-08-19T11:38:57.548Z,30.30
2022-08-19T11:41:26.999Z,30.30
2022-08-19T11:43:56.371Z,30.40
2022-08-19T11:46:30.666Z,30.40
2022-08-19T11:49:04.352Z,30.40
2022-08-19T11:51:33.744Z,30.40
2022-08-19T11:54:03.328Z,30.40
2022-08-19T11:56:32.390Z,30.50
2022-08-19T11:59:02.998Z,30.50
2022-08-19T12:01:35.746Z,30.40
2022-08-19T12:04:05.528Z,30.40
2022-08-19T12:06:36.076Z,30.50
2022-08-19T12:09:08.520Z,30.60
2022-08-19T12:11:38.289Z,30.60
2022-08-19T12:14:07.680Z,30.60
2022-08-19T12:16:42.585Z,30.70
2022-08-19T12:19:21.897Z,30.70
2022-08-19T12:21:52.358Z,30.80
2022-08-19T12:24:24.392Z,30.80
2022-08-19T12:26:54.668Z,30.80
2022-08-19T12:29:30.850Z,30.70
2022-08-19T12:32:04.023Z,30.80
2022-08-19T12:34:34.056Z,30.80
2022-08-19T12:37:06.131Z,30.80
2022-08-19T12:39:37.848Z,30.80
2022-08-19T12:42:08.652Z,30.90
2022-08-19T12:44:39.067Z,30.90
2022-08-19T12:47:17.214Z,30.90
2022-08-19T12:49:54.438Z,31.00
2022-08-19T12:52:24.104Z,31.00
2022-08-19T12:54:54.927Z,31.00
2022-08-19T12:57:32.038Z,31.00
2022-08-19T13:00:05.731Z,31.10
2022-08-19T13:02:38.566Z,31.10
2022-08-19T13:05:11.506Z,31.00
2022-08-19T13:07:41.494Z,31.10
2022-08-19T13:10:13.554Z,31.00
2022-08-19T13:12:43.209Z,31.00
2022-08-19T13:15:13.156Z,31.00
2022-08-19T13:17:45.365Z,31.00
2022-08-19T13:20:14.225Z,30.90
2022-08-19T13:22:43.510Z,30.90
2022-08-19T13:25:13.081Z,30.90
2022-08-19T13:27:42.358Z,30.90
2022-08-19T13:30:30.836Z,31.00
2022-08-19T13:33:16.071Z,31.10
2022-08-19T13:35:51.878Z,31.10
2022-08-19T13:38:23.280Z,31.10
2022-08-19T13:40:53.685Z,31.10
2022-08-19T13:43:23.906Z,31.10
2022-08-19T13:45:54.955Z,31.10
2022-08-19T13:48:28.097Z,31.10
2022-08-19T13:50:58.813Z,31.10
2022-08-19T13:53:34.831Z,31.20
2022-08-19T13:56:08.943Z,31.20
2022-08-19T13:58:39.596Z,31.20
2022-08-19T14:01:10.814Z,31.30
2022-08-19T14:03:49.962Z,31.20
2022-08-19T14:06:21.695Z,31.20
2022-08-19T14:08:52.556Z,31.20
2022-08-19T14:11:24.730Z,31.30
2022-08-19T14:13:53.735Z,31.40
2022-08-19T14:16:23.654Z,31.40
2022-08-19T14:18:54.270Z,31.40
2022-08-19T14:21:26.562Z,31.40
2022-08-19T14:23:57.733Z,31.40
2022-08-19T14:26:27.171Z,31.40
2022-08-19T14:29:00.462Z,31.40
2022-08-19T14:31:30.976Z,31.40
2022-08-19T14:34:06.539Z,31.40
2022-08-19T14:36:39.331Z,31.40
2022-08-19T14:39:10.712Z,31.40
2022-08-19T14:41:45.746Z,31.40
2022-08-19T14:44:18.617Z,31.40
2022-08-19T14:46:50.222Z,31.40
2022-08-19T14:49:26.806Z,31.40
2022-08-19T14:52:04.485Z,31.40
2022-08-19T14:54:33.575Z,31.40
2022-08-19T14:57:02.351Z,31.40
2022-08-19T14:59:31.554Z,31.40
2022-08-19T15:02:33.454Z,31.40
2022-08-19T15:04:58.116Z,31.40
2022-08-19T15:07:29.906Z,31.40
2022-08-19T15:09:59.003Z,31.40
2022-08-19T15:12:27.883Z,31.50
2022-08-19T15:14:57.186Z,31.50
2022-08-19T15:17:41.388Z,31.50
2022-08-19T15:20:22.301Z,31.50
2022-08-19T15:22:51.285Z,31.50
2022-08-19T15:25:21.606Z,31.50
2022-08-19T15:27:51.378Z,31.40
2022-08-19T15:30:24.035Z,31.30
2022-08-19T15:32:53.926Z,31.20
2022-08-19T15:35:25.959Z,31.10
2022-08-19T15:37:56.779Z,31.00
2022-08-19T15:40:28.500Z,30.90
2022-08-19T15:42:59.164Z,30.80
2022-08-19T15:45:33.038Z,30.80
2022-08-19T15:48:02.007Z,30.80
2022-08-19T15:50:33.383Z,30.80
2022-08-19T15:53:04.054Z,30.60
2022-08-19T15:55:35.073Z,30.50
2022-08-19T15:58:28.960Z,30.40
2022-08-19T16:01:20.714Z,30.40
2022-08-19T16:04:14.025Z,30.30
2022-08-19T16:06:47.920Z,30.20
2022-08-19T16:09:18.626Z,30.20
2022-08-19T16:11:56.600Z,30.20
2022-08-19T16:14:26.897Z,30.20
2022-08-19T16:16:57.053Z,30.10
2022-08-19T16:19:26.872Z,30.10
2022-08-19T16:21:58.620Z,30.10
2022-08-19T16:24:29.818Z,30.10
2022-08-19T16:26:59.195Z,30.00
2022-08-19T16:29:34.839Z,29.90
2022-08-19T16:32:11.286Z,29.80
2022-08-19T16:34:40.422Z,29.70
2022-08-19T16:37:11.080Z,29.70
2022-08-19T16:39:40.383Z,29.70
2022-08-19T16:42:14.265Z,29.60
2022-08-19T16:44:45.277Z,29.50
2022-08-19T16:47:15.505Z,29.30
2022-08-19T16:49:53.708Z,29.20
2022-08-19T16:52:27.358Z,29.10
2022-08-19T16:54:56.772Z,29.00
2022-08-19T16:57:25.533Z,28.90
2022-08-19T16:59:54.316Z,28.80
2022-08-19T17:02:25.519Z,28.80
2022-08-19T17:04:59.339Z,28.70
2022-08-19T17:07:33.089Z,28.70
2022-08-19T17:10:03.715Z,28.60
2022-08-19T17:12:32.647Z,28.50
2022-08-19T17:15:03.011Z,28.40
2022-08-19T17:17:32.812Z,28.40
2022-08-19T17:20:02.766Z,28.30
2022-08-19T17:22:33.038Z,28.20
2022-08-19T17:25:01.754Z,28.10
2022-08-19T17:27:32.485Z,28.00
2022-08-19T17:30:02.835Z,27.90
2022-08-19T17:32:37.525Z,27.90
2022-08-19T17:35:07.428Z,27.70
2022-08-19T17:37:38.099Z,27.60
2022-08-19T17:40:09.637Z,27.50
2022-08-19T17:42:38.844Z,27.40
2022-08-19T17:45:09.222Z,27.30
2022-08-19T17:47:38.024Z,27.20
2022-08-19T17:50:08.525Z,27.10
2022-08-19T17:52:40.223Z,27.00
2022-08-19T17:55:10.529Z,26.90
2022-08-19T17:57:41.209Z,26.80
2022-08-19T18:00:13.393Z,26.70
2022-08-19T18:02:47.522Z,26.60
2022-08-19T18:05:19.831Z,26.60
2022-08-19T18:07:52.207Z,26.50
2022-08-19T18:10:24.194Z,26.40
2022-08-19T18:13:17.366Z,26.30
2022-08-19T18:15:47.538Z,26.20
2022-08-19T18:18:16.260Z,26.20
2022-08-19T18:20:45.576Z,26.10
2022-08-19T18:23:45.532Z,26.00
2022-08-19T18:26:05.251Z,26.00
2022-08-19T18:28:34.385Z,25.90
2022-08-19T18:31:03.995Z,25.90
2022-08-19T18:33:34.594Z,25.80
2022-08-19T18:36:13.271Z,25.70
2022-08-19T18:39:06.414Z,25.70
2022-08-19T18:41:54.177Z,25.60
2022-08-19T18:44:40.395Z,25.60
2022-08-19T18:47:26.729Z,25.50
2022-08-19T18:49:55.547Z,25.50
2022-08-19T18:52:25.711Z,25.40
2022-08-19T18:54:55.867Z,25.40
2022-08-19T18:57:25.098Z,25.40
2022-08-19T18:59:56.927Z,25.40
2022-08-19T19:02:25.850Z,25.40
2022-08-19T19:04:56.161Z,25.30
2022-08-19T19:07:27.670Z,25.30
2022-08-19T19:09:58.210Z,25.30
2022-08-19T19:12:29.261Z,25.30
2022-08-19T19:14:58.911Z,25.30
2022-08-19T19:17:28.527Z,25.30
2022-08-19T19:19:57.211Z,25.20
2022-08-19T19:22:27.141Z,25.20
2022-08-19T19:24:59.721Z,25.10
2022-08-19T19:27:28.573Z,25.00
2022-08-19T19:29:57.632Z,25.00
2022-08-19T19:32:29.877Z,24.90
2022-08-19T19:34:59.718Z,24.80
2022-08-19T19:37:28.919Z,24.70
2022-08-19T19:39:59.123Z,24.60
2022-08-19T19:42:28.029Z,24.60
2022-08-19T19:44:57.811Z,24.60
2022-08-19T19:47:28.315Z,24.60
2022-08-19T19:50:13.771Z,24.60
2022-08-19T19:52:45.710Z,24.70
2022-08-19T19:55:19.246Z,24.60
2022-08-19T19:57:48.989Z,24.60
2022-08-19T20:00:19.460Z,24.50
2022-08-19T20:02:50.417Z,24.50
2022-08-19T20:05:21.757Z,24.50
2022-08-19T20:08:08.414Z,24.40
2022-08-19T20:10:39.285Z,24.40
2022-08-19T20:13:09.053Z,24.30
2022-08-19T20:15:43.698Z,24.30
2022-08-19T20:18:16.376Z,24.30
2022-08-19T20:20:46.049Z,24.20
2022-08-19T20:23:15.471Z,24.20
2022-08-19T20:25:45.586Z,24.20
2022-08-19T20:28:14.379Z,24.20
2022-08-19T20:30:48.254Z,24.20
2022-08-19T20:33:17.132Z,24.20
2022-08-19T20:35:46.482Z,24.20
2022-08-19T20:38:15.884Z,24.20
2022-08-19T20:40:46.666Z,24.20
2022-08-19T20:43:16.341Z,24.20
2022-08-19T20:45:45.080Z,24.20
2022-08-19T20:48:13.868Z,24.20
2022-08-19T20:50:42.713Z,24.10
2022-08-19T20:53:16.680Z,24.10
2022-08-19T20:55:49.369Z,24.00
2022-08-19T20:58:19.496Z,24.00
2022-08-19T21:00:48.727Z,23.90
2022-08-19T21:03:20.926Z,23.90
2022-08-19T21:05:50.376Z,23.80
2022-08-19T21:08:19.563Z,23.80
2022-08-19T21:10:51.926Z,23.80
2022-08-19T21:13:22.116Z,23.80
2022-08-19T21:15:51.691Z,23.70
2022-08-19T21:18:23.307Z,23.70
2022-08-19T21:20:52.763Z,23.60
2022-08-19T21:23:25.405Z,23.70
2022-08-19T21:25:57.076Z,23.70
2022-08-19T21:28:35.518Z,23.70
2022-08-19T21:31:07.903Z,23.70
2022-08-19T21:33:36.718Z,23.60
2022-08-19T21:36:06.669Z,23.60
2022-08-19T21:38:35.332Z,23.60
2022-08-19T21:41:07.429Z,23.60
2022-08-19T21:43:36.558Z,23.60
2022-08-19T21:46:05.441Z,23.60
2022-08-19T21:48:34.332Z,23.60
2022-08-19T21:51:03.107Z,23.60
2022-08-19T21:53:34.652Z,23.60
2022-08-19T21:56:06.600Z,23.50
2022-08-19T21:58:36.607Z,23.50
2022-08-19T22:01:08.335Z,23.50
2022-08-19T22:03:38.997Z,23.50
2022-08-19T22:06:09.584Z,23.50
2022-08-19T22:08:42.398Z,23.50
2022-08-19T22:11:13.130Z,23.50
2022-08-19T22:13:42.581Z,23.50
2022-08-19T22:16:11.699Z,23.50
2022-08-19T22:18:40.346Z,23.50
2022-08-19T22:21:11.984Z,23.40
2022-08-19T22:23:42.129Z,23.40
2022-08-19T22:26:14.753Z,23.50
2022-08-19T22:28:47.160Z,23.40
2022-08-19T22:31:16.512Z,23.40
2022-08-19T22:33:45.425Z,23.40
2022-08-19T22:36:15.127Z,23.40
2022-08-19T22:38:43.955Z,23.50
2022-08-19T22:41:14.088Z,23.40
2022-08-19T22:43:43.746Z,23.40
2022-08-19T22:46:17.239Z,23.40
2022-08-19T22:49:00.939Z,23.40
2022-08-19T22:51:47.498Z,23.40
2022-08-19T22:54:16.824Z,23.30
2022-08-19T22:56:48.108Z,23.30
2022-08-19T22:59:18.943Z,23.40
2022-08-19T23:01:47.720Z,23.40
2022-08-19T23:04:16.599Z,23.30
2022-08-19T23:06:45.260Z,23.40
2022-08-19T23:09:17.509Z,23.30
2022-08-19T23:11:48.731Z,23.30
2022-08-19T23:14:19.193Z,23.30
2022-08-19T23:16:51.401Z,23.40
2022-08-19T23:19:21.758Z,23.40
2022-08-19T23:21:50.965Z,23.40
2022-08-19T23:24:19.851Z,23.30
2022-08-19T23:27:07.363Z,23.30
2022-08-19T23:29:54.258Z,23.20
2022-08-19T23:32:25.637Z,23.20
2022-08-19T23:34:56.718Z,23.20
2022-08-19T23:37:25.684Z,23.10
2022-08-19T23:39:54.620Z,23.10
2022-08-19T23:42:26.233Z,23.10
2022-08-19T23:44:55.033Z,23.10
2022-08-19T23:47:23.801Z,23.10
2022-08-19T23:49:52.689Z,23.10
2022-08-19T23:52:21.568Z,23.10
2022-08-19T23:54:51.912Z,23.10
2022-08-19T23:57:24.706Z,23.00
2022-08-19T23:59:53.820Z,23.00
